Airfield :
LOGIN :

Register | Disclaimer

   EN    FR    IT 

 










Legend :    VFR   Marginal VFR   IFR   Intensive IFR   Very Intensive IFR
Visi :
Ceiling :
>= 8 km
>= 3000ft
5 to 8 km
1000 to 3000 ft
1500m to 5 km
500 to 1000 ft
800 to 1500m
200 to 500 ft
< 800m
< 200 ft
Symbols :   Thunderstorms  Fog  Heavy snow  Heavy precipitations  Wind > 20 kt
SIGMETs :     Misc.  Thunderstorms  Icing  Turbulence  Mountain Waves  Volcanic Ashes







- Airport Elevation : 12 ft
- IATA code : NCE
- Download approach charts


LFMN - Nice

CURRENT METAR :
  • 170600Z VRB01KT 9999 FEW013 21/13 Q1015 NOSIG

EXPIRED METARs :
  • 170500Z 32006KT 9999 FEW013 18/12 Q1015 NOSIG
  • 170430Z 33008KT 9999 FEW013 18/13 Q1015 NOSIG
  • 170400Z 32006KT 9999 FEW012 18/13 Q1015 NOSIG
  • 170330Z 33006KT 9999 SCT012 18/14 Q1015 NOSIG

TAF TAF LFMN
Valid from the 17 at 03:00 until the 18 at 09:00 UTC


170200Z 1703/1809 VRB03KT 9999 BKN012
TEMPO 1703/1706 34010KT
BECMG 1706/1709 15006KT CAVOK
TEMPO 1712/1717 21010KT
BECMG 1717/1719 VRB04KT
TEMPO 1723/1806 34010KT
PROB30
TEMPO 1800/1807 BKN012
BECMG 1807/1809 16006KT
ATIS : +33 4 93 17 21 16
No reported NOTAMs for that airfield.



MET'MAP, your aeronautical weather chart ! - Copyright ORBIFLY December 2007 - Disclaimer

ORBIFLY MET'MAP TEAM :

Programming & Development : Alexandra Zaïnal
Concept & Development : Baudouin d'Aumeries
Co-Development & Prog : Marc-Olivier Méhu
Technical & hardware support : Manuel Goepfert

Contact : metmap@orbifly.com




SOURCES & CREDITS :

   NOAA